Time;durP1;ratioP1;P1;durP2;ratioP2;P2;SDS_P1;SDS_P2;PMS_P1;PMS_P2;Temp;Humidity;BMP_temperature;BMP_pressure;BME280_temperature;BME280_humidity;BME280_pressure;Samples;Min_cycle;Max_cycle;Signal;HPM_P1;HPM_P2
2022/04/22 00:02:21;;;;;;;;;;;21.10;31.60;;;;;;5141912;27;20355;-59
2022/04/22 00:04:47;;;;;;;;;;;21.20;31.40;;;;;;5147076;27;20321;-51
2022/04/22 00:07:12;;;;;;;;;;;21.00;31.80;;;;;;5141544;27;19927;-56
2022/04/22 00:09:38;;;;;;;;;;;21.20;31.60;;;;;;5137028;27;19945;-55
2022/04/22 00:12:04;;;;;;;;;;;21.10;31.60;;;;;;5146315;27;19923;-54
2022/04/22 00:14:30;;;;;;;;;;;21.10;31.80;;;;;;5141552;27;20009;-53
2022/04/22 00:16:56;;;;;;;;;;;21.20;31.70;;;;;;5147187;27;19975;-55
2022/04/22 00:19:22;;;;;;;;;;;21.20;31.60;;;;;;5141834;27;20366;-57
2022/04/22 00:21:48;;;;;;;;;;;21.20;31.60;;;;;;5141531;27;20310;-55
2022/04/22 00:24:14;;;;;;;;;;;21.10;31.70;;;;;;5147021;27;20430;-57
2022/04/22 00:26:40;;;;;;;;;;;21.20;31.60;;;;;;5138679;27;19934;-54
2022/04/22 00:29:07;;;;;;;;;;;21.20;31.60;;;;;;5138963;27;20462;-54
2022/04/22 00:31:33;;;;;;;;;;;21.10;31.80;;;;;;5146418;27;19931;-58
2022/04/22 00:33:59;;;;;;;;;;;21.30;31.50;;;;;;5141408;27;19923;-53
2022/04/22 00:36:24;;;;;;;;;;;21.10;31.70;;;;;;5147016;27;20063;-49
2022/04/22 00:38:50;;;;;;;;;;;21.10;31.70;;;;;;5144381;27;20273;-58
2022/04/22 00:41:16;;;;;;;;;;;21.20;31.70;;;;;;5145035;27;20022;-48
2022/04/22 00:43:46;;;;;;;;;;;21.20;31.80;;;;;;5131896;27;20275;-58
2022/04/22 00:46:11;;;;;;;;;;;21.20;31.70;;;;;;5140482;27;19923;-59
2022/04/22 00:48:37;;;;;;;;;;;21.20;31.70;;;;;;5144244;27;20350;-56
2022/04/22 00:51:04;;;;;;;;;;;21.20;31.70;;;;;;5150272;27;19949;-53
2022/04/22 00:53:30;;;;;;;;;;;21.00;31.90;;;;;;5144940;27;20059;-57
2022/04/22 00:55:56;;;;;;;;;;;21.20;31.80;;;;;;5146350;27;20258;-57
2022/04/22 00:58:22;;;;;;;;;;;21.10;31.90;;;;;;5149030;27;19976;-58
2022/04/22 01:00:47;;;;;;;;;;;21.20;31.70;;;;;;5144636;27;19933;-57
2022/04/22 01:03:13;;;;;;;;;;;21.30;31.70;;;;;;5147735;27;20030;-58
2022/04/22 01:11:08;;;;;;;;;;;21.20;31.70;;;;;;5134279;27;19943;-58
2022/04/22 01:13:33;;;;;;;;;;;21.20;31.70;;;;;;5125966;27;20039;-57
2022/04/22 01:15:59;;;;;;;;;;;21.10;31.90;;;;;;5144248;27;20021;-49
2022/04/22 01:18:25;;;;;;;;;;;21.30;31.80;;;;;;5149670;27;19963;-56
2022/04/22 01:20:51;;;;;;;;;;;21.20;31.80;;;;;;5143995;27;19979;-50
2022/04/22 01:23:16;;;;;;;;;;;21.10;31.80;;;;;;5139702;27;20194;-58
2022/04/22 01:25:42;;;;;;;;;;;21.20;31.70;;;;;;5149177;27;19923;-47
2022/04/22 01:28:10;;;;;;;;;;;21.10;31.90;;;;;;5144168;27;19938;-56
2022/04/22 01:30:36;;;;;;;;;;;21.20;31.80;;;;;;5149763;27;20319;-49
2022/04/22 01:33:02;;;;;;;;;;;21.10;32.00;;;;;;5124321;27;19981;-54
2022/04/22 01:35:27;;;;;;;;;;;21.20;32.00;;;;;;5144049;27;20398;-49
2022/04/22 01:37:53;;;;;;;;;;;21.00;32.20;;;;;;5149554;27;19922;-60
2022/04/22 01:40:19;;;;;;;;;;;21.20;31.90;;;;;;5140858;27;19927;-53
2022/04/22 01:42:45;;;;;;;;;;;21.10;32.10;;;;;;5141895;27;20096;-59
2022/04/22 01:45:12;;;;;;;;;;;21.20;31.90;;;;;;5149075;27;19923;-48
2022/04/22 01:47:38;;;;;;;;;;;21.00;32.10;;;;;;5144067;27;20022;-51
2022/04/22 01:50:04;;;;;;;;;;;21.20;31.90;;;;;;5146901;27;19923;-58
2022/04/22 01:52:29;;;;;;;;;;;21.10;32.10;;;;;;5146820;27;19927;-56
2022/04/22 01:54:56;;;;;;;;;;;21.30;31.90;;;;;;5124678;27;19931;-58
2022/04/22 01:57:22;;;;;;;;;;;21.10;32.10;;;;;;5149080;27;20392;-58
2022/04/22 01:59:48;;;;;;;;;;;21.20;31.90;;;;;;5139356;27;20022;-59
2022/04/22 02:02:17;;;;;;;;;;;21.10;32.10;;;;;;5142949;27;20029;-59
2022/04/22 02:04:43;;;;;;;;;;;21.20;32.00;;;;;;5130517;27;20030;-50
2022/04/22 02:07:09;;;;;;;;;;;21.00;32.20;;;;;;5143691;27;20290;-56
2022/04/22 02:09:34;;;;;;;;;;;21.00;32.20;;;;;;5143543;27;19979;-58
2022/04/22 02:12:00;;;;;;;;;;;21.20;32.10;;;;;;5148856;27;20438;-57
2022/04/22 02:14:26;;;;;;;;;;;21.00;32.20;;;;;;5143311;27;20030;-57
2022/04/22 02:16:52;;;;;;;;;;;21.20;32.10;;;;;;5146107;27;19923;-55
2022/04/22 02:19:18;;;;;;;;;;;21.10;32.20;;;;;;5122416;27;19923;-57
2022/04/22 02:21:44;;;;;;;;;;;21.30;32.10;;;;;;5143151;27;20440;-49
2022/04/22 02:24:10;;;;;;;;;;;21.10;32.30;;;;;;5148850;27;20290;-55
2022/04/22 02:29:20;;;;;;;;;;;21.10;32.20;;;;;;5143507;27;19929;-55
2022/04/22 02:31:46;;;;;;;;;;;21.20;32.00;;;;;;5130144;27;19923;-58
2022/04/22 02:34:12;;;;;;;;;;;21.00;32.30;;;;;;5142995;27;19927;-56
2022/04/22 02:36:38;;;;;;;;;;;21.20;32.00;;;;;;5138880;27;20076;-58
2022/04/22 02:39:04;;;;;;;;;;;21.00;32.30;;;;;;5147624;27;20013;-59
2022/04/22 02:46:59;;;;;;;;;;;21.30;31.90;;;;;;5148520;27;19927;-58
2022/04/22 02:49:24;;;;;;;;;;;20.90;32.50;;;;;;5142898;27;19988;-54
2022/04/22 02:51:51;;;;;;;;;;;21.20;32.10;;;;;;5148396;27;19931;-57
2022/04/22 02:54:17;;;;;;;;;;;21.00;32.40;;;;;;5138839;27;19933;-58
2022/04/22 02:56:43;;;;;;;;;;;21.30;32.00;;;;;;5141528;27;19927;-58
2022/04/22 02:59:08;;;;;;;;;;;20.90;32.50;;;;;;5127850;27;19923;-56
2022/04/22 03:01:34;;;;;;;;;;;21.20;32.00;;;;;;5141912;27;19927;-58
2022/04/22 03:04:00;;;;;;;;;;;21.00;32.30;;;;;;5142683;27;20488;-54
2022/04/22 03:06:26;;;;;;;;;;;21.20;32.00;;;;;;5148007;27;19927;-59
2022/04/22 03:08:55;;;;;;;;;;;20.90;32.40;;;;;;5124168;27;20017;-57
2022/04/22 03:11:21;;;;;;;;;;;21.10;32.10;;;;;;5145005;27;19924;-58
2022/04/22 03:13:49;;;;;;;;;;;21.00;32.30;;;;;;5141546;27;19929;-57
2022/04/22 03:16:16;;;;;;;;;;;21.20;32.00;;;;;;5141888;27;19923;-51
2022/04/22 03:18:42;;;;;;;;;;;21.20;32.10;;;;;;5147965;27;20064;-58
2022/04/22 03:21:08;;;;;;;;;;;21.00;32.30;;;;;;5142475;27;20399;-56
2022/04/22 03:23:33;;;;;;;;;;;21.20;32.10;;;;;;5142671;27;20310;-56
2022/04/22 03:25:59;;;;;;;;;;;21.00;32.20;;;;;;5147889;27;19931;-57
2022/04/22 03:28:26;;;;;;;;;;;21.10;32.20;;;;;;5142409;27;20430;-56
2022/04/22 03:30:51;;;;;;;;;;;21.10;32.10;;;;;;5138841;27;19930;-58
2022/04/22 03:33:17;;;;;;;;;;;21.20;32.20;;;;;;5127373;27;20375;-49
2022/04/22 03:35:43;;;;;;;;;;;21.10;32.30;;;;;;5142139;27;19927;-56
2022/04/22 03:38:12;;;;;;;;;;;21.20;32.00;;;;;;5147634;27;19923;-57
2022/04/22 03:40:38;;;;;;;;;;;21.00;32.40;;;;;;5123591;27;19930;-58
2022/04/22 03:43:04;;;;;;;;;;;21.30;31.90;;;;;;5142164;27;20480;-53
2022/04/22 03:45:29;;;;;;;;;;;21.00;32.40;;;;;;5147425;27;20505;-59
2022/04/22 03:47:59;;;;;;;;;;;21.20;32.10;;;;;;5141119;27;19924;-52
2022/04/22 03:50:26;;;;;;;;;;;21.00;32.40;;;;;;5137488;27;20201;-49
2022/04/22 03:52:52;;;;;;;;;;;21.20;32.20;;;;;;5146770;27;19931;-57
2022/04/22 03:55:18;;;;;;;;;;;20.90;32.60;;;;;;5141680;27;20413;-50
2022/04/22 04:00:29;;;;;;;;;;;21.10;32.40;;;;;;5147453;27;20404;-50
2022/04/22 04:02:55;;;;;;;;;;;21.20;32.30;;;;;;5141812;27;19927;-58
2022/04/22 04:05:20;;;;;;;;;;;20.90;32.70;;;;;;5146985;27;19923;-55
2022/04/22 04:07:46;;;;;;;;;;;21.10;32.40;;;;;;5137874;27;19952;-58
2022/04/22 04:15:59;;;;;;;;;;;21.20;32.30;;;;;;5143747;27;20029;-51
2022/04/22 04:18:26;;;;;;;;;;;21.20;32.30;;;;;;5141731;27;19927;-56
2022/04/22 04:23:36;;;;;;;;;;;21.20;32.50;;;;;;5131212;27;19926;-56
2022/04/22 04:26:01;;;;;;;;;;;21.10;32.40;;;;;;5137917;27;19923;-59
2022/04/22 04:28:27;;;;;;;;;;;21.20;32.40;;;;;;5145036;27;19923;-57
2022/04/22 04:30:56;;;;;;;;;;;21.10;32.40;;;;;;5141229;27;19970;-59
2022/04/22 04:33:25;;;;;;;;;;;21.10;32.50;;;;;;5122584;27;19923;-58
2022/04/22 04:35:50;;;;;;;;;;;21.20;32.40;;;;;;5146689;27;20080;-57
2022/04/22 04:38:17;;;;;;;;;;;21.10;32.50;;;;;;5141359;27;19931;-58
2022/04/22 04:40:43;;;;;;;;;;;21.10;32.40;;;;;;5141161;27;19923;-58
2022/04/22 04:43:09;;;;;;;;;;;21.20;32.40;;;;;;5146018;27;19986;-56
2022/04/22 04:45:35;;;;;;;;;;;21.10;32.50;;;;;;5137330;27;19923;-48
2022/04/22 04:48:00;;;;;;;;;;;21.20;32.30;;;;;;5146321;27;20276;-57
2022/04/22 04:50:26;;;;;;;;;;;21.10;32.50;;;;;;5141305;27;19950;-58
2022/04/22 04:52:52;;;;;;;;;;;21.10;32.50;;;;;;5141148;27;19927;-56
2022/04/22 04:55:18;;;;;;;;;;;21.10;32.50;;;;;;5128190;27;19969;-49
2022/04/22 04:57:44;;;;;;;;;;;21.20;32.40;;;;;;5141335;27;19926;-58
2022/04/22 05:00:10;;;;;;;;;;;21.00;32.60;;;;;;5122678;27;20306;-48
2022/04/22 05:02:36;;;;;;;;;;;21.20;32.30;;;;;;5143264;27;19923;-52
2022/04/22 05:05:03;;;;;;;;;;;21.00;32.60;;;;;;5139016;27;19923;-55
2022/04/22 05:07:28;;;;;;;;;;;21.20;32.30;;;;;;5143969;27;20570;-57
2022/04/22 05:09:54;;;;;;;;;;;21.10;32.50;;;;;;5143509;27;19923;-55
2022/04/22 05:12:20;;;;;;;;;;;21.20;32.40;;;;;;5120795;27;19923;-56
2022/04/22 05:14:46;;;;;;;;;;;21.10;32.60;;;;;;5146366;27;19923;-58
2022/04/22 05:17:12;;;;;;;;;;;21.10;32.50;;;;;;5140784;27;19973;-59
2022/04/22 05:19:38;;;;;;;;;;;21.00;32.70;;;;;;5140609;27;20013;-50
2022/04/22 05:22:04;;;;;;;;;;;21.30;32.40;;;;;;5141074;27;20397;-56
2022/04/22 05:24:31;;;;;;;;;;;21.10;32.60;;;;;;5123666;27;19927;-48
2022/04/22 05:26:57;;;;;;;;;;;21.20;32.60;;;;;;5144318;27;19922;-54
2022/04/22 05:34:54;;;;;;;;;;;21.20;32.50;;;;;;5128701;27;20429;-56
2022/04/22 05:37:20;;;;;;;;;;;21.10;32.80;;;;;;5149583;27;19971;-58
2022/04/22 05:39:46;;;;;;;;;;;21.30;32.40;;;;;;5140244;27;19942;-58
2022/04/22 05:42:12;;;;;;;;;;;20.90;33.00;;;;;;5148231;27;19930;-50
2022/04/22 05:44:41;;;;;;;;;;;21.30;32.50;;;;;;5143963;27;19927;-58
2022/04/22 05:47:07;;;;;;;;;;;21.00;32.80;;;;;;5143971;27;19930;-58
2022/04/22 05:49:33;;;;;;;;;;;21.20;32.60;;;;;;5149294;27;20059;-53
2022/04/22 05:51:59;;;;;;;;;;;21.00;32.80;;;;;;5143936;27;20370;-56
2022/04/22 05:54:25;;;;;;;;;;;21.20;32.70;;;;;;5144179;27;19930;-56
2022/04/22 05:56:50;;;;;;;;;;;21.10;32.70;;;;;;5147715;27;19975;-48
2022/04/22 05:59:16;;;;;;;;;;;21.20;32.70;;;;;;5140048;27;19927;-48
2022/04/22 06:01:42;;;;;;;;;;;21.20;32.60;;;;;;5145658;27;20308;-55
2022/04/22 06:04:08;;;;;;;;;;;21.20;32.70;;;;;;5146913;27;19930;-58
2022/04/22 06:06:33;;;;;;;;;;;20.90;33.00;;;;;;5143644;27;19930;-57
2022/04/22 06:11:44;;;;;;;;;;;21.00;33.00;;;;;;5143760;27;19929;-58
2022/04/22 06:14:09;;;;;;;;;;;21.30;32.50;;;;;;5143321;27;19923;-59
2022/04/22 06:16:36;;;;;;;;;;;21.10;32.80;;;;;;5144515;27;19938;-56
2022/04/22 06:19:01;;;;;;;;;;;21.20;32.70;;;;;;5142413;27;19927;-59
2022/04/22 06:21:29;;;;;;;;;;;20.90;33.20;;;;;;5143175;27;20400;-55
2022/04/22 06:23:54;;;;;;;;;;;21.30;32.70;;;;;;5148650;27;19927;-50
2022/04/22 06:26:20;;;;;;;;;;;21.00;33.10;;;;;;5143336;27;19932;-55
2022/04/22 06:28:46;;;;;;;;;;;21.10;32.90;;;;;;5146441;27;19983;-56
2022/04/22 06:31:12;;;;;;;;;;;20.90;33.30;;;;;;5127425;27;20282;-55
2022/04/22 06:33:38;;;;;;;;;;;21.30;32.80;;;;;;5141589;27;19927;-48
2022/04/22 06:36:04;;;;;;;;;;;21.00;33.10;;;;;;5143538;27;19931;-51
2022/04/22 06:38:29;;;;;;;;;;;21.30;32.90;;;;;;5142639;27;19927;-58
2022/04/22 06:46:24;;;;;;;;;;;21.30;32.80;;;;;;5142906;27;20491;-59
2022/04/22 06:48:50;;;;;;;;;;;21.10;33.00;;;;;;5142833;27;19950;-57
2022/04/22 06:51:20;;;;;;;;;;;21.30;32.80;;;;;;5148429;27;19926;-58
2022/04/22 06:53:46;;;;;;;;;;;21.00;33.20;;;;;;5138180;27;19927;-51
2022/04/22 06:56:13;;;;;;;;;;;21.00;33.10;;;;;;5142116;27;20015;-51
2022/04/22 06:58:40;;;;;;;;;;;21.20;32.90;;;;;;5148030;27;21242;-57
2022/04/22 07:01:06;;;;;;;;;;;21.10;33.00;;;;;;5142765;27;19926;-59
2022/04/22 07:03:32;;;;;;;;;;;21.20;33.00;;;;;;5147419;27;19923;-58
2022/04/22 07:05:58;;;;;;;;;;;20.90;33.50;;;;;;5143823;27;20350;-50
2022/04/22 07:08:24;;;;;;;;;;;21.20;33.10;;;;;;5142994;27;19927;-55
2022/04/22 07:10:50;;;;;;;;;;;21.00;33.40;;;;;;5145320;27;20259;-51
2022/04/22 07:13:16;;;;;;;;;;;21.30;33.00;;;;;;5140164;27;19935;-56
2022/04/22 07:15:45;;;;;;;;;;;21.20;32.90;;;;;;5142092;27;19933;-54
2022/04/22 07:18:11;;;;;;;;;;;21.20;32.90;;;;;;5148026;27;20419;-50
2022/04/22 07:20:37;;;;;;;;;;;21.10;33.10;;;;;;5142257;27;19930;-51
2022/04/22 07:23:03;;;;;;;;;;;21.20;33.00;;;;;;5143194;27;20359;-55
2022/04/22 07:25:29;;;;;;;;;;;21.10;33.30;;;;;;5147274;27;20462;-57
2022/04/22 07:27:55;;;;;;;;;;;21.30;33.00;;;;;;5142297;27;19927;-53
2022/04/22 07:30:21;;;;;;;;;;;21.10;33.30;;;;;;5142887;27;19946;-54
2022/04/22 07:32:48;;;;;;;;;;;21.20;33.10;;;;;;5122984;27;19929;-55
2022/04/22 07:35:15;;;;;;;;;;;21.00;33.60;;;;;;5141916;27;19922;-57
2022/04/22 07:37:41;;;;;;;;;;;21.30;33.20;;;;;;5147436;27;20014;-57
2022/04/22 07:40:07;;;;;;;;;;;21.00;33.60;;;;;;5141952;27;19923;-49
2022/04/22 07:42:33;;;;;;;;;;;21.30;33.30;;;;;;5142470;27;19926;-54
2022/04/22 07:47:46;;;;;;;;;;;21.20;33.40;;;;;;5138240;27;20535;-58
2022/04/22 07:50:13;;;;;;;;;;;21.20;33.30;;;;;;5139814;27;19923;-57
2022/04/22 07:52:38;;;;;;;;;;;21.10;33.50;;;;;;5147082;27;20014;-55
2022/04/22 07:55:04;;;;;;;;;;;21.20;33.30;;;;;;5121192;27;19933;-56
2022/04/22 07:57:33;;;;;;;;;;;21.20;33.50;;;;;;5147424;27;19931;-59
2022/04/22 07:59:59;;;;;;;;;;;21.20;33.40;;;;;;5141964;27;19959;-58
2022/04/22 08:02:25;;;;;;;;;;;21.10;33.50;;;;;;5141879;27;20397;-57
2022/04/22 08:04:50;;;;;;;;;;;21.20;33.50;;;;;;5143198;27;20023;-57
2022/04/22 08:07:16;;;;;;;;;;;21.00;33.70;;;;;;5136682;27;19980;-57
2022/04/22 08:09:44;;;;;;;;;;;21.30;33.30;;;;;;5140812;27;20243;-58
2022/04/22 08:12:12;;;;;;;;;;;21.00;33.70;;;;;;5128775;27;20438;-56
2022/04/22 08:14:38;;;;;;;;;;;21.30;33.40;;;;;;5138267;27;19969;-48
2022/04/22 08:17:04;;;;;;;;;;;21.00;34.00;;;;;;5146987;27;19926;-59
2022/04/22 08:19:29;;;;;;;;;;;21.20;33.80;;;;;;5141989;27;20386;-57
2022/04/22 08:21:56;;;;;;;;;;;20.90;34.20;;;;;;5141459;27;20034;-50
2022/04/22 08:24:22;;;;;;;;;;;21.20;33.70;;;;;;5144140;27;19934;-54
2022/04/22 08:26:48;;;;;;;;;;;21.20;33.60;;;;;;5139051;27;19931;-56
2022/04/22 08:29:14;;;;;;;;;;;21.20;33.70;;;;;;5141022;27;20423;-56
2022/04/22 08:31:40;;;;;;;;;;;21.10;33.70;;;;;;5146797;27;19923;-49
2022/04/22 08:34:05;;;;;;;;;;;21.20;33.60;;;;;;5141403;27;19926;-56
2022/04/22 08:36:31;;;;;;;;;;;21.20;33.60;;;;;;5144092;27;19950;-56
2022/04/22 08:38:57;;;;;;;;;;;21.20;33.70;;;;;;5124881;27;19924;-58
2022/04/22 08:41:23;;;;;;;;;;;21.20;33.80;;;;;;5141412;27;19923;-58
2022/04/22 08:43:50;;;;;;;;;;;21.20;33.70;;;;;;5142066;27;19938;-59
2022/04/22 08:51:45;;;;;;;;;;;21.10;33.90;;;;;;5146726;27;19975;-56
2022/04/22 08:54:12;;;;;;;;;;;21.30;33.70;;;;;;5141137;27;19928;-54
2022/04/22 08:56:39;;;;;;;;;;;21.20;33.90;;;;;;5140908;27;19923;-48
2022/04/22 08:59:04;;;;;;;;;;;21.30;34.00;;;;;;5148326;27;20017;-59
2022/04/22 09:01:30;;;;;;;;;;;21.30;33.90;;;;;;5141380;27;19972;-59
2022/04/22 09:03:56;;;;;;;;;;;21.20;34.00;;;;;;5142633;27;19977;-52
2022/04/22 09:06:22;;;;;;;;;;;21.10;34.10;;;;;;5149978;27;20378;-59
2022/04/22 09:08:48;;;;;;;;;;;21.30;33.80;;;;;;5144624;27;19923;-49
2022/04/22 09:11:14;;;;;;;;;;;21.10;34.10;;;;;;5150264;27;19923;-58
2022/04/22 09:13:40;;;;;;;;;;;21.30;33.70;;;;;;5144982;27;19948;-57
2022/04/22 09:16:06;;;;;;;;;;;21.30;33.70;;;;;;5144761;27;19934;-55
2022/04/22 09:18:35;;;;;;;;;;;21.10;34.10;;;;;;5149891;27;19923;-59
2022/04/22 09:21:06;;;;;;;;;;;21.20;33.90;;;;;;5140214;27;20487;-58
2022/04/22 09:23:33;;;;;;;;;;;21.20;34.00;;;;;;5143991;27;19923;-56
2022/04/22 09:25:59;;;;;;;;;;;21.10;34.20;;;;;;5145576;27;19927;-55
2022/04/22 09:28:24;;;;;;;;;;;21.10;33.90;;;;;;5125250;27;20010;-59
2022/04/22 09:31:00;;;;;;;;;;;21.20;33.90;;;;;;5144362;27;19930;-55
2022/04/22 09:33:34;;;;;;;;;;;21.10;34.10;;;;;;5149911;27;19923;-59
2022/04/22 09:44:23;;;;;;;;;;;21.10;34.00;;;;;;5143892;27;19923;-58
2022/04/22 09:46:49;;;;;;;;;;;21.30;33.60;;;;;;5143909;27;20386;-57
2022/04/22 09:49:51;;;;;;;;;;;21.30;33.80;;;;;;5130863;27;20276;-55
2022/04/22 09:52:24;;;;;;;;;;;21.20;34.30;;;;;;5039663;28;19941;-58
2022/04/22 09:55:21;;;;;;;;;;;21.30;34.00;;;;;;5126955;27;19927;-58
2022/04/22 09:57:53;;;;;;;;;;;21.30;33.90;;;;;;5121751;27;19929;-56
2022/04/22 10:00:22;;;;;;;;;;;21.30;34.00;;;;;;5148199;27;20378;-57
2022/04/22 10:02:51;;;;;;;;;;;21.30;34.40;;;;;;5143824;27;20019;-59
2022/04/22 10:05:20;;;;;;;;;;;21.30;34.30;;;;;;5149038;27;19927;-59
2022/04/22 10:07:47;;;;;;;;;;;21.30;34.20;;;;;;5143657;27;20021;-58
2022/04/22 10:10:14;;;;;;;;;;;21.20;34.20;;;;;;5143389;27;19931;-59
2022/04/22 10:12:40;;;;;;;;;;;21.30;34.40;;;;;;5149027;27;20018;-58
2022/04/22 10:15:08;;;;;;;;;;;21.30;34.30;;;;;;5121620;27;20368;-57
2022/04/22 10:17:36;;;;;;;;;;;21.20;34.50;;;;;;5121400;27;20136;-56
2022/04/22 10:20:04;;;;;;;;;;;21.30;34.30;;;;;;5144753;27;19923;-57
2022/04/22 10:22:31;;;;;;;;;;;21.30;34.30;;;;;;5124244;27;19922;-58
2022/04/22 10:24:57;;;;;;;;;;;21.30;34.40;;;;;;5144921;27;19927;-56
2022/04/22 10:27:23;;;;;;;;;;;21.30;34.30;;;;;;5127917;27;19930;-59
2022/04/22 10:29:49;;;;;;;;;;;21.30;34.30;;;;;;5143139;27;19927;-58
2022/04/22 10:32:15;;;;;;;;;;;21.30;34.10;;;;;;5147779;27;19931;-59
2022/04/22 10:34:41;;;;;;;;;;;21.20;34.30;;;;;;5102027;27;19977;-58
2022/04/22 10:37:20;;;;;;;;;;;21.30;34.20;;;;;;5142447;27;19923;-60
2022/04/22 10:39:50;;;;;;;;;;;21.20;34.20;;;;;;5148602;27;19938;-56
2022/04/22 10:42:16;;;;;;;;;;;21.20;34.30;;;;;;5143161;27;19979;-58
2022/04/22 10:47:43;;;;;;;;;;;21.30;34.20;;;;;;5132185;27;21288;-60
2022/04/22 10:50:29;;;;;;;;;;;21.30;34.00;;;;;;5142766;27;19927;-57
2022/04/22 10:53:17;;;;;;;;;;;21.40;34.00;;;;;;5138615;27;20634;-57
2022/04/22 10:55:43;;;;;;;;;;;21.50;33.80;;;;;;5099215;27;19929;-60
2022/04/22 10:58:12;;;;;;;;;;;21.50;34.00;;;;;;5122736;27;20438;-58
2022/04/22 11:00:41;;;;;;;;;;;21.50;33.90;;;;;;5143173;27;19991;-59
2022/04/22 11:03:13;;;;;;;;;;;21.50;33.80;;;;;;5148294;27;19927;-59
2022/04/22 11:05:46;;;;;;;;;;;21.60;33.90;;;;;;5142761;27;20010;-59
2022/04/22 11:08:18;;;;;;;;;;;21.60;34.00;;;;;;5142594;27;19929;-58
2022/04/22 11:10:46;;;;;;;;;;;21.60;34.10;;;;;;5143241;27;20416;-58
2022/04/22 11:13:31;;;;;;;;;;;21.60;34.30;;;;;;5141337;27;19933;-60
2022/04/22 11:16:07;;;;;;;;;;;21.60;34.20;;;;;;5142351;27;19937;-60
2022/04/22 11:18:37;;;;;;;;;;;21.60;34.30;;;;;;5147846;27;19923;-58
2022/04/22 11:21:03;;;;;;;;;;;21.50;34.40;;;;;;5141258;27;19934;-60
2022/04/22 11:23:36;;;;;;;;;;;21.50;34.30;;;;;;5142403;27;19923;-56
2022/04/22 11:26:02;;;;;;;;;;;21.60;34.10;;;;;;5147759;27;20301;-60
2022/04/22 11:28:29;;;;;;;;;;;21.70;34.10;;;;;;5138748;27;19927;-59
2022/04/22 11:30:55;;;;;;;;;;;21.60;34.40;;;;;;5119561;27;20357;-59
2022/04/22 11:33:21;;;;;;;;;;;21.60;34.70;;;;;;5147648;27;19935;-58
2022/04/22 11:35:50;;;;;;;;;;;21.70;34.70;;;;;;5142427;27;19927;-60
2022/04/22 11:38:16;;;;;;;;;;;21.70;34.50;;;;;;5147902;27;19947;-58
2022/04/22 11:40:43;;;;;;;;;;;21.80;34.40;;;;;;5142250;27;19923;-59
2022/04/22 11:43:12;;;;;;;;;;;21.80;34.20;;;;;;5142065;27;19975;-59
2022/04/22 11:45:40;;;;;;;;;;;21.80;34.10;;;;;;5146659;27;20014;-59
2022/04/22 11:48:09;;;;;;;;;;;21.80;34.00;;;;;;5137769;27;19923;-58
2022/04/22 11:50:42;;;;;;;;;;;21.80;34.10;;;;;;5122053;27;20030;-58
2022/04/22 11:53:15;;;;;;;;;;;21.80;34.20;;;;;;5128430;27;20400;-58
2022/04/22 11:55:44;;;;;;;;;;;21.80;34.30;;;;;;5141872;27;20359;-60
2022/04/22 11:58:10;;;;;;;;;;;21.80;34.00;;;;;;5141951;27;19959;-59
2022/04/22 12:06:11;;;;;;;;;;;21.90;33.80;;;;;;5136801;27;20386;-60
2022/04/22 12:08:37;;;;;;;;;;;21.80;33.70;;;;;;5146431;27;20369;-58
2022/04/22 12:11:03;;;;;;;;;;;21.90;33.90;;;;;;5122987;27;19923;-60
2022/04/22 12:13:29;;;;;;;;;;;21.90;34.00;;;;;;5141847;27;20419;-59
2022/04/22 12:15:54;;;;;;;;;;;21.90;33.90;;;;;;5147262;27;19956;-58
2022/04/22 12:18:27;;;;;;;;;;;22.00;33.60;;;;;;5141662;27;19954;-58
2022/04/22 12:20:53;;;;;;;;;;;22.00;33.50;;;;;;5147173;27;19923;-60
2022/04/22 12:23:21;;;;;;;;;;;22.00;33.50;;;;;;5138373;27;20113;-59
2022/04/22 12:25:53;;;;;;;;;;;22.00;33.70;;;;;;5139204;27;19953;-58
2022/04/22 12:28:20;;;;;;;;;;;22.00;33.60;;;;;;5146750;27;19943;-58
2022/04/22 12:30:46;;;;;;;;;;;22.00;33.40;;;;;;5141617;27;19923;-58
2022/04/22 12:33:19;;;;;;;;;;;21.90;33.60;;;;;;5143209;27;19946;-59
2022/04/22 12:35:49;;;;;;;;;;;22.10;33.30;;;;;;5150555;27;19923;-60
2022/04/22 12:38:15;;;;;;;;;;;22.10;33.20;;;;;;5145085;27;19923;-58
2022/04/22 12:40:47;;;;;;;;;;;22.00;33.20;;;;;;5126235;27;20005;-58
2022/04/22 12:43:27;;;;;;;;;;;22.10;33.40;;;;;;5145940;27;20422;-58
2022/04/22 12:54:11;;;;;;;;;;;22.10;33.30;;;;;;5144734;27;19923;-60
2022/04/22 12:56:37;;;;;;;;;;;22.20;33.10;;;;;;5144741;27;19927;-58
2022/04/22 12:59:03;;;;;;;;;;;22.30;33.00;;;;;;5149679;27;19923;-57
2022/04/22 13:01:36;;;;;;;;;;;22.20;33.00;;;;;;5140327;27;19931;-59
2022/04/22 13:04:02;;;;;;;;;;;22.30;33.10;;;;;;5143764;27;20160;-57
2022/04/22 13:06:54;;;;;;;;;;;22.30;32.90;;;;;;5149963;27;19927;-58
2022/04/22 13:09:24;;;;;;;;;;;22.30;33.00;;;;;;5139816;27;19931;-59
2022/04/22 13:11:51;;;;;;;;;;;22.30;33.00;;;;;;5144816;27;20267;-58
2022/04/22 13:14:17;;;;;;;;;;;22.30;33.10;;;;;;5150039;27;19949;-58
2022/04/22 13:16:45;;;;;;;;;;;22.30;33.10;;;;;;5144495;27;19923;-57
2022/04/22 13:19:11;;;;;;;;;;;22.30;33.00;;;;;;5140406;27;19927;-58
2022/04/22 13:21:37;;;;;;;;;;;22.30;32.80;;;;;;5148350;27;19930;-59
2022/04/22 13:24:03;;;;;;;;;;;22.40;32.60;;;;;;5144287;27;20331;-59
2022/04/22 13:26:29;;;;;;;;;;;22.40;32.50;;;;;;5149724;27;19981;-59
2022/04/22 13:28:55;;;;;;;;;;;22.40;32.50;;;;;;5125817;27;19927;-59
2022/04/22 13:31:22;;;;;;;;;;;22.50;32.60;;;;;;5144124;27;19927;-59
2022/04/22 13:33:48;;;;;;;;;;;22.50;32.70;;;;;;5149681;27;19945;-59
2022/04/22 13:36:15;;;;;;;;;;;22.50;32.50;;;;;;5142381;27;19927;-58
2022/04/22 13:38:43;;;;;;;;;;;22.50;32.50;;;;;;5140427;27;19938;-59
2022/04/22 13:41:09;;;;;;;;;;;22.40;32.40;;;;;;5148970;27;19923;-59
2022/04/22 13:43:35;;;;;;;;;;;22.50;32.20;;;;;;5143615;27;19949;-57
2022/04/22 13:54:15;;;;;;;;;;;22.60;32.80;;;;;;5140776;27;19923;-57
2022/04/22 13:56:40;;;;;;;;;;;22.60;32.50;;;;;;5124598;27;19923;-59
2022/04/22 13:59:06;;;;;;;;;;;22.60;32.50;;;;;;5143273;27;19934;-58
2022/04/22 14:01:32;;;;;;;;;;;22.60;32.40;;;;;;5149097;27;19975;-60
2022/04/22 14:03:58;;;;;;;;;;;22.40;32.40;;;;;;5143929;27;20382;-59
2022/04/22 14:06:23;;;;;;;;;;;21.50;33.90;;;;;;5143642;27;19929;-59
2022/04/22 14:08:49;;;;;;;;;;;21.50;33.90;;;;;;5149180;27;19930;-57
2022/04/22 14:11:15;;;;;;;;;;;21.60;33.70;;;;;;5143858;27;19925;-58
2022/04/22 14:13:41;;;;;;;;;;;21.60;33.60;;;;;;5120273;27;20581;-58
2022/04/22 14:16:07;;;;;;;;;;;21.70;33.60;;;;;;5146797;27;19934;-60
2022/04/22 14:18:34;;;;;;;;;;;21.70;33.50;;;;;;5143162;27;19923;-58
2022/04/22 14:21:00;;;;;;;;;;;21.70;33.50;;;;;;5147168;27;20295;-57
2022/04/22 14:23:26;;;;;;;;;;;21.70;33.50;;;;;;5145708;27;19923;-59
2022/04/22 14:25:56;;;;;;;;;;;21.80;33.60;;;;;;5143326;27;19931;-59
2022/04/22 14:28:25;;;;;;;;;;;21.70;33.80;;;;;;5148830;27;20374;-59
2022/04/22 14:30:51;;;;;;;;;;;21.60;33.90;;;;;;5143244;27;20021;-58
2022/04/22 14:33:16;;;;;;;;;;;21.60;34.00;;;;;;5138693;27;19954;-60
2022/04/22 14:35:42;;;;;;;;;;;21.60;33.70;;;;;;5148075;27;19926;-58
2022/04/22 14:38:08;;;;;;;;;;;21.60;33.70;;;;;;5142965;27;20259;-59
2022/04/22 14:40:34;;;;;;;;;;;21.70;33.50;;;;;;5143293;27;19931;-59
2022/04/22 14:43:01;;;;;;;;;;;21.70;33.40;;;;;;5148751;27;20076;-58
2022/04/22 14:45:28;;;;;;;;;;;21.70;33.40;;;;;;5124723;27;19944;-59
2022/04/22 14:47:55;;;;;;;;;;;21.60;33.40;;;;;;5148505;27;19931;-58
2022/04/22 14:50:21;;;;;;;;;;;21.50;33.60;;;;;;5139772;27;20466;-57
2022/04/22 14:52:48;;;;;;;;;;;21.60;33.50;;;;;;5140677;27;19923;-56
2022/04/22 14:55:14;;;;;;;;;;;21.60;33.50;;;;;;5147927;27;20014;-58
2022/04/22 14:57:39;;;;;;;;;;;21.70;33.40;;;;;;5142033;27;20387;-58
2022/04/22 15:00:07;;;;;;;;;;;21.60;33.30;;;;;;5143120;27;20217;-59
2022/04/22 15:02:34;;;;;;;;;;;21.60;33.30;;;;;;5148343;27;19923;-57
2022/04/22 15:04:59;;;;;;;;;;;21.60;33.10;;;;;;5142726;27;19923;-59
2022/04/22 15:07:29;;;;;;;;;;;21.70;33.00;;;;;;5146795;27;19931;-55
2022/04/22 15:09:55;;;;;;;;;;;21.70;33.00;;;;;;5141304;27;19923;-58
2022/04/22 15:12:22;;;;;;;;;;;21.60;33.10;;;;;;5141970;27;20374;-58
2022/04/22 15:14:50;;;;;;;;;;;21.50;33.10;;;;;;5147968;27;19923;-58
2022/04/22 15:17:16;;;;;;;;;;;21.60;33.00;;;;;;5142697;27;20046;-58
2022/04/22 15:25:10;;;;;;;;;;;21.70;32.90;;;;;;5142649;27;19923;-58
2022/04/22 15:27:36;;;;;;;;;;;21.70;32.90;;;;;;5138638;27;19922;-57
2022/04/22 15:30:02;;;;;;;;;;;21.70;32.80;;;;;;5146147;27;20017;-56
2022/04/22 15:32:28;;;;;;;;;;;21.50;32.90;;;;;;5142517;27;19931;-58
2022/04/22 15:34:54;;;;;;;;;;;21.60;32.80;;;;;;5142854;27;20440;-59
2022/04/22 15:37:20;;;;;;;;;;;21.60;32.70;;;;;;5147783;27;19974;-58
2022/04/22 15:39:47;;;;;;;;;;;21.70;32.70;;;;;;5142425;27;19930;-59
2022/04/22 15:42:13;;;;;;;;;;;21.70;32.70;;;;;;5147745;27;19929;-57